sensor_id;sensor_type;location;lat;lon;timestamp;P1;durP1;ratioP1;P2;durP2;ratioP2
57593;SDS011;43423;46.510;6.686;2023-03-19T00:01:22;11.25;;;5.70;;
57593;SDS011;43423;46.510;6.686;2023-03-19T00:03:47;11.15;;;5.47;;
57593;SDS011;43423;46.510;6.686;2023-03-19T00:06:14;13.00;;;4.70;;
57593;SDS011;43423;46.510;6.686;2023-03-19T00:08:40;10.10;;;5.32;;
57593;SDS011;43423;46.510;6.686;2023-03-19T00:11:07;14.02;;;5.47;;
57593;SDS011;43423;46.510;6.686;2023-03-19T00:13:33;13.63;;;5.78;;
57593;SDS011;43423;46.510;6.686;2023-03-19T00:15:59;14.45;;;5.93;;
57593;SDS011;43423;46.510;6.686;2023-03-19T00:18:25;13.85;;;5.80;;
57593;SDS011;43423;46.510;6.686;2023-03-19T00:20:50;12.18;;;5.70;;
57593;SDS011;43423;46.510;6.686;2023-03-19T00:23:16;10.57;;;5.40;;
57593;SDS011;43423;46.510;6.686;2023-03-19T00:25:42;10.75;;;5.80;;
57593;SDS011;43423;46.510;6.686;2023-03-19T00:28:07;11.85;;;5.13;;
57593;SDS011;43423;46.510;6.686;2023-03-19T00:30:33;8.95;;;4.72;;
57593;SDS011;43423;46.510;6.686;2023-03-19T00:32:59;10.57;;;5.07;;
57593;SDS011;43423;46.510;6.686;2023-03-19T00:35:25;9.00;;;4.65;;
57593;SDS011;43423;46.510;6.686;2023-03-19T00:37:51;7.78;;;4.30;;
57593;SDS011;43423;46.510;6.686;2023-03-19T00:40:16;11.02;;;4.80;;
57593;SDS011;43423;46.510;6.686;2023-03-19T00:42:42;9.80;;;4.82;;
57593;SDS011;43423;46.510;6.686;2023-03-19T00:45:09;10.32;;;4.82;;
57593;SDS011;43423;46.510;6.686;2023-03-19T00:47:35;9.20;;;4.88;;
57593;SDS011;43423;46.510;6.686;2023-03-19T00:50:02;10.90;;;4.80;;
57593;SDS011;43423;46.510;6.686;2023-03-19T00:52:28;9.68;;;4.50;;
57593;SDS011;43423;46.510;6.686;2023-03-19T00:54:54;9.73;;;4.47;;
57593;SDS011;43423;46.510;6.686;2023-03-19T00:57:20;7.30;;;5.00;;
57593;SDS011;43423;46.510;6.686;2023-03-19T00:59:46;11.20;;;5.25;;
57593;SDS011;43423;46.510;6.686;2023-03-19T01:02:12;11.77;;;5.88;;
57593;SDS011;43423;46.510;6.686;2023-03-19T01:04:37;13.40;;;5.43;;
57593;SDS011;43423;46.510;6.686;2023-03-19T01:07:03;9.75;;;4.72;;
57593;SDS011;43423;46.510;6.686;2023-03-19T01:09:29;10.23;;;5.55;;
57593;SDS011;43423;46.510;6.686;2023-03-19T01:11:55;8.07;;;5.22;;
57593;SDS011;43423;46.510;6.686;2023-03-19T01:14:21;10.80;;;5.65;;
57593;SDS011;43423;46.510;6.686;2023-03-19T01:16:46;12.35;;;6.18;;
57593;SDS011;43423;46.510;6.686;2023-03-19T01:19:12;10.50;;;6.03;;
57593;SDS011;43423;46.510;6.686;2023-03-19T01:21:38;9.32;;;6.22;;
57593;SDS011;43423;46.510;6.686;2023-03-19T01:24:04;10.15;;;6.40;;
57593;SDS011;43423;46.510;6.686;2023-03-19T01:26:29;8.10;;;6.43;;
57593;SDS011;43423;46.510;6.686;2023-03-19T01:28:56;10.35;;;6.00;;
57593;SDS011;43423;46.510;6.686;2023-03-19T01:31:22;14.00;;;6.35;;
57593;SDS011;43423;46.510;6.686;2023-03-19T01:33:47;12.73;;;6.82;;
57593;SDS011;43423;46.510;6.686;2023-03-19T01:36:13;13.43;;;7.20;;
57593;SDS011;43423;46.510;6.686;2023-03-19T01:38:39;12.43;;;6.70;;
57593;SDS011;43423;46.510;6.686;2023-03-19T01:41:04;11.88;;;7.57;;
57593;SDS011;43423;46.510;6.686;2023-03-19T01:43:30;10.90;;;6.32;;
57593;SDS011;43423;46.510;6.686;2023-03-19T01:46:00;14.48;;;6.65;;
57593;SDS011;43423;46.510;6.686;2023-03-19T01:51:02;13.88;;;6.20;;
57593;SDS011;43423;46.510;6.686;2023-03-19T01:53:31;11.82;;;6.35;;
57593;SDS011;43423;46.510;6.686;2023-03-19T01:56:01;13.82;;;6.03;;
57593;SDS011;43423;46.510;6.686;2023-03-19T01:58:31;9.43;;;6.15;;
57593;SDS011;43423;46.510;6.686;2023-03-19T02:00:57;10.93;;;6.57;;
57593;SDS011;43423;46.510;6.686;2023-03-19T02:03:23;16.77;;;6.30;;
57593;SDS011;43423;46.510;6.686;2023-03-19T02:05:49;13.55;;;6.72;;
57593;SDS011;43423;46.510;6.686;2023-03-19T02:08:17;16.80;;;6.82;;
57593;SDS011;43423;46.510;6.686;2023-03-19T02:10:45;16.13;;;7.22;;
57593;SDS011;43423;46.510;6.686;2023-03-19T02:13:12;24.80;;;7.70;;
57593;SDS011;43423;46.510;6.686;2023-03-19T02:15:38;15.10;;;7.72;;
57593;SDS011;43423;46.510;6.686;2023-03-19T02:18:04;12.57;;;7.05;;
57593;SDS011;43423;46.510;6.686;2023-03-19T02:20:31;18.33;;;7.55;;
57593;SDS011;43423;46.510;6.686;2023-03-19T02:26:02;15.98;;;7.53;;
57593;SDS011;43423;46.510;6.686;2023-03-19T02:28:31;12.18;;;7.22;;
57593;SDS011;43423;46.510;6.686;2023-03-19T02:30:59;17.52;;;8.57;;
57593;SDS011;43423;46.510;6.686;2023-03-19T02:33:25;17.67;;;8.02;;
57593;SDS011;43423;46.510;6.686;2023-03-19T02:35:51;17.75;;;8.55;;
57593;SDS011;43423;46.510;6.686;2023-03-19T02:38:18;18.00;;;8.95;;
57593;SDS011;43423;46.510;6.686;2023-03-19T02:40:49;18.48;;;8.60;;
57593;SDS011;43423;46.510;6.686;2023-03-19T02:43:26;20.67;;;8.63;;
57593;SDS011;43423;46.510;6.686;2023-03-19T02:45:52;16.20;;;9.02;;
57593;SDS011;43423;46.510;6.686;2023-03-19T02:48:18;22.60;;;9.32;;
57593;SDS011;43423;46.510;6.686;2023-03-19T02:50:44;28.52;;;10.27;;
57593;SDS011;43423;46.510;6.686;2023-03-19T02:53:10;21.45;;;9.20;;
57593;SDS011;43423;46.510;6.686;2023-03-19T02:55:36;20.83;;;9.32;;
57593;SDS011;43423;46.510;6.686;2023-03-19T02:58:01;19.42;;;9.52;;
57593;SDS011;43423;46.510;6.686;2023-03-19T03:00:27;24.55;;;9.18;;
57593;SDS011;43423;46.510;6.686;2023-03-19T03:02:54;25.25;;;10.13;;
57593;SDS011;43423;46.510;6.686;2023-03-19T03:05:21;21.80;;;11.15;;
57593;SDS011;43423;46.510;6.686;2023-03-19T03:07:47;18.17;;;8.95;;
57593;SDS011;43423;46.510;6.686;2023-03-19T03:10:14;21.52;;;9.88;;
57593;SDS011;43423;46.510;6.686;2023-03-19T03:12:40;21.70;;;10.40;;
57593;SDS011;43423;46.510;6.686;2023-03-19T03:15:06;19.75;;;9.70;;
57593;SDS011;43423;46.510;6.686;2023-03-19T03:17:35;24.73;;;10.82;;
57593;SDS011;43423;46.510;6.686;2023-03-19T03:20:03;22.05;;;10.27;;
57593;SDS011;43423;46.510;6.686;2023-03-19T03:22:29;22.88;;;9.88;;
57593;SDS011;43423;46.510;6.686;2023-03-19T03:24:55;19.77;;;10.25;;
57593;SDS011;43423;46.510;6.686;2023-03-19T03:27:21;22.92;;;10.00;;
57593;SDS011;43423;46.510;6.686;2023-03-19T03:29:47;22.45;;;9.80;;
57593;SDS011;43423;46.510;6.686;2023-03-19T03:32:12;15.13;;;8.88;;
57593;SDS011;43423;46.510;6.686;2023-03-19T03:34:39;23.90;;;9.50;;
57593;SDS011;43423;46.510;6.686;2023-03-19T03:37:04;21.27;;;9.13;;
57593;SDS011;43423;46.510;6.686;2023-03-19T03:39:30;19.85;;;9.50;;
57593;SDS011;43423;46.510;6.686;2023-03-19T03:41:56;18.88;;;9.18;;
57593;SDS011;43423;46.510;6.686;2023-03-19T03:44:22;30.38;;;13.80;;
57593;SDS011;43423;46.510;6.686;2023-03-19T03:46:47;34.50;;;14.98;;
57593;SDS011;43423;46.510;6.686;2023-03-19T03:49:13;39.80;;;16.00;;
57593;SDS011;43423;46.510;6.686;2023-03-19T03:51:39;30.02;;;13.30;;
57593;SDS011;43423;46.510;6.686;2023-03-19T03:54:05;27.80;;;11.35;;
57593;SDS011;43423;46.510;6.686;2023-03-19T03:56:31;26.85;;;10.80;;
57593;SDS011;43423;46.510;6.686;2023-03-19T03:58:57;23.63;;;10.63;;
57593;SDS011;43423;46.510;6.686;2023-03-19T04:01:23;29.23;;;11.48;;
57593;SDS011;43423;46.510;6.686;2023-03-19T04:03:48;23.30;;;11.10;;
57593;SDS011;43423;46.510;6.686;2023-03-19T04:06:15;27.88;;;12.07;;
57593;SDS011;43423;46.510;6.686;2023-03-19T04:08:42;19.73;;;9.50;;
57593;SDS011;43423;46.510;6.686;2023-03-19T04:11:08;19.48;;;8.98;;
57593;SDS011;43423;46.510;6.686;2023-03-19T04:13:34;19.77;;;8.90;;
57593;SDS011;43423;46.510;6.686;2023-03-19T04:16:04;19.23;;;9.30;;
57593;SDS011;43423;46.510;6.686;2023-03-19T04:18:31;20.60;;;10.23;;
57593;SDS011;43423;46.510;6.686;2023-03-19T04:20:56;27.17;;;10.38;;
57593;SDS011;43423;46.510;6.686;2023-03-19T04:23:23;20.08;;;9.68;;
57593;SDS011;43423;46.510;6.686;2023-03-19T04:25:49;20.98;;;9.10;;
57593;SDS011;43423;46.510;6.686;2023-03-19T04:28:15;20.95;;;10.15;;
57593;SDS011;43423;46.510;6.686;2023-03-19T04:30:40;20.33;;;10.25;;
57593;SDS011;43423;46.510;6.686;2023-03-19T04:33:08;24.65;;;9.90;;
57593;SDS011;43423;46.510;6.686;2023-03-19T04:35:35;21.45;;;11.02;;
57593;SDS011;43423;46.510;6.686;2023-03-19T04:38:01;24.90;;;10.70;;
57593;SDS011;43423;46.510;6.686;2023-03-19T04:40:27;19.92;;;10.57;;
57593;SDS011;43423;46.510;6.686;2023-03-19T04:42:52;20.65;;;9.95;;
57593;SDS011;43423;46.510;6.686;2023-03-19T04:45:19;19.35;;;10.50;;
57593;SDS011;43423;46.510;6.686;2023-03-19T04:47:45;19.67;;;10.32;;
57593;SDS011;43423;46.510;6.686;2023-03-19T04:50:10;23.00;;;9.70;;
57593;SDS011;43423;46.510;6.686;2023-03-19T04:52:37;20.77;;;10.68;;
57593;SDS011;43423;46.510;6.686;2023-03-19T04:55:03;19.67;;;8.75;;
57593;SDS011;43423;46.510;6.686;2023-03-19T04:57:31;19.20;;;9.23;;
57593;SDS011;43423;46.510;6.686;2023-03-19T04:59:56;16.75;;;8.55;;
57593;SDS011;43423;46.510;6.686;2023-03-19T05:02:22;18.15;;;8.98;;
57593;SDS011;43423;46.510;6.686;2023-03-19T05:04:48;17.88;;;8.32;;
57593;SDS011;43423;46.510;6.686;2023-03-19T05:07:13;19.30;;;9.68;;
57593;SDS011;43423;46.510;6.686;2023-03-19T05:09:39;17.35;;;8.48;;
57593;SDS011;43423;46.510;6.686;2023-03-19T05:12:04;19.38;;;8.35;;
57593;SDS011;43423;46.510;6.686;2023-03-19T05:14:31;15.15;;;8.57;;
57593;SDS011;43423;46.510;6.686;2023-03-19T05:16:56;22.25;;;10.48;;
57593;SDS011;43423;46.510;6.686;2023-03-19T05:19:22;16.25;;;9.85;;
57593;SDS011;43423;46.510;6.686;2023-03-19T05:21:49;22.55;;;9.60;;
57593;SDS011;43423;46.510;6.686;2023-03-19T05:24:14;19.80;;;9.48;;
57593;SDS011;43423;46.510;6.686;2023-03-19T05:26:40;19.33;;;9.90;;
57593;SDS011;43423;46.510;6.686;2023-03-19T05:29:06;19.70;;;9.35;;
57593;SDS011;43423;46.510;6.686;2023-03-19T05:31:35;21.38;;;9.77;;
57593;SDS011;43423;46.510;6.686;2023-03-19T05:34:01;18.15;;;9.00;;
57593;SDS011;43423;46.510;6.686;2023-03-19T05:36:27;15.80;;;8.88;;
57593;SDS011;43423;46.510;6.686;2023-03-19T05:38:53;25.85;;;8.95;;
57593;SDS011;43423;46.510;6.686;2023-03-19T05:41:18;15.27;;;8.27;;
57593;SDS011;43423;46.510;6.686;2023-03-19T05:43:44;27.95;;;8.52;;
57593;SDS011;43423;46.510;6.686;2023-03-19T05:46:09;28.42;;;9.25;;
57593;SDS011;43423;46.510;6.686;2023-03-19T05:48:35;15.45;;;7.65;;
57593;SDS011;43423;46.510;6.686;2023-03-19T05:51:01;16.15;;;7.97;;
57593;SDS011;43423;46.510;6.686;2023-03-19T05:53:27;24.27;;;9.35;;
57593;SDS011;43423;46.510;6.686;2023-03-19T05:55:53;21.48;;;8.35;;
57593;SDS011;43423;46.510;6.686;2023-03-19T05:58:19;24.38;;;8.98;;
57593;SDS011;43423;46.510;6.686;2023-03-19T06:00:45;16.70;;;8.80;;
57593;SDS011;43423;46.510;6.686;2023-03-19T06:03:10;20.42;;;8.13;;
57593;SDS011;43423;46.510;6.686;2023-03-19T06:05:36;15.32;;;8.20;;
57593;SDS011;43423;46.510;6.686;2023-03-19T06:08:02;16.48;;;8.23;;
57593;SDS011;43423;46.510;6.686;2023-03-19T06:10:28;17.50;;;8.10;;
57593;SDS011;43423;46.510;6.686;2023-03-19T06:12:54;16.50;;;8.38;;
57593;SDS011;43423;46.510;6.686;2023-03-19T06:15:19;15.63;;;8.25;;
57593;SDS011;43423;46.510;6.686;2023-03-19T06:17:45;25.48;;;9.25;;
57593;SDS011;43423;46.510;6.686;2023-03-19T06:20:10;23.05;;;8.77;;
57593;SDS011;43423;46.510;6.686;2023-03-19T06:22:37;16.10;;;8.65;;
57593;SDS011;43423;46.510;6.686;2023-03-19T06:25:02;19.58;;;8.25;;
57593;SDS011;43423;46.510;6.686;2023-03-19T06:27:28;24.73;;;8.43;;
57593;SDS011;43423;46.510;6.686;2023-03-19T06:29:54;14.82;;;8.02;;
57593;SDS011;43423;46.510;6.686;2023-03-19T06:32:19;21.02;;;9.25;;
57593;SDS011;43423;46.510;6.686;2023-03-19T06:34:45;19.00;;;8.40;;
57593;SDS011;43423;46.510;6.686;2023-03-19T06:37:11;18.55;;;8.13;;
57593;SDS011;43423;46.510;6.686;2023-03-19T06:39:36;17.15;;;8.68;;
57593;SDS011;43423;46.510;6.686;2023-03-19T06:42:02;14.13;;;7.25;;
57593;SDS011;43423;46.510;6.686;2023-03-19T06:44:28;18.35;;;7.72;;
57593;SDS011;43423;46.510;6.686;2023-03-19T06:46:54;18.90;;;8.20;;
57593;SDS011;43423;46.510;6.686;2023-03-19T06:49:19;16.15;;;7.68;;
57593;SDS011;43423;46.510;6.686;2023-03-19T06:51:46;11.95;;;7.75;;
57593;SDS011;43423;46.510;6.686;2023-03-19T06:54:11;17.45;;;7.15;;
57593;SDS011;43423;46.510;6.686;2023-03-19T06:56:37;25.02;;;7.70;;
57593;SDS011;43423;46.510;6.686;2023-03-19T06:59:02;18.30;;;6.88;;
57593;SDS011;43423;46.510;6.686;2023-03-19T07:01:28;15.63;;;7.25;;
57593;SDS011;43423;46.510;6.686;2023-03-19T07:03:53;12.88;;;7.63;;
57593;SDS011;43423;46.510;6.686;2023-03-19T07:06:20;13.50;;;6.78;;
57593;SDS011;43423;46.510;6.686;2023-03-19T07:08:45;16.08;;;7.13;;
57593;SDS011;43423;46.510;6.686;2023-03-19T07:11:11;10.07;;;6.80;;
57593;SDS011;43423;46.510;6.686;2023-03-19T07:13:38;9.73;;;6.78;;
57593;SDS011;43423;46.510;6.686;2023-03-19T07:16:04;16.55;;;6.68;;
57593;SDS011;43423;46.510;6.686;2023-03-19T07:18:30;13.65;;;6.18;;
57593;SDS011;43423;46.510;6.686;2023-03-19T07:20:55;10.52;;;6.75;;
57593;SDS011;43423;46.510;6.686;2023-03-19T07:23:21;14.50;;;6.07;;
57593;SDS011;43423;46.510;6.686;2023-03-19T07:25:47;12.02;;;5.85;;
57593;SDS011;43423;46.510;6.686;2023-03-19T07:28:12;11.00;;;5.75;;
57593;SDS011;43423;46.510;6.686;2023-03-19T07:30:38;15.43;;;6.57;;
57593;SDS011;43423;46.510;6.686;2023-03-19T07:33:05;12.00;;;5.78;;
57593;SDS011;43423;46.510;6.686;2023-03-19T07:35:32;13.18;;;6.45;;
57593;SDS011;43423;46.510;6.686;2023-03-19T07:37:58;17.60;;;5.90;;
57593;SDS011;43423;46.510;6.686;2023-03-19T07:40:24;20.50;;;5.43;;
57593;SDS011;43423;46.510;6.686;2023-03-19T07:42:51;8.27;;;5.55;;
57593;SDS011;43423;46.510;6.686;2023-03-19T07:45:17;11.70;;;5.68;;
57593;SDS011;43423;46.510;6.686;2023-03-19T07:47:42;12.82;;;6.00;;
57593;SDS011;43423;46.510;6.686;2023-03-19T07:50:08;9.68;;;5.88;;
57593;SDS011;43423;46.510;6.686;2023-03-19T07:52:34;9.45;;;5.47;;
57593;SDS011;43423;46.510;6.686;2023-03-19T07:55:00;19.05;;;5.78;;
57593;SDS011;43423;46.510;6.686;2023-03-19T07:57:26;8.80;;;5.68;;
57593;SDS011;43423;46.510;6.686;2023-03-19T07:59:52;13.63;;;5.32;;
57593;SDS011;43423;46.510;6.686;2023-03-19T08:02:17;8.63;;;5.03;;
57593;SDS011;43423;46.510;6.686;2023-03-19T08:04:43;9.15;;;4.97;;
57593;SDS011;43423;46.510;6.686;2023-03-19T08:07:09;9.13;;;4.93;;
57593;SDS011;43423;46.510;6.686;2023-03-19T08:09:38;11.38;;;5.40;;
57593;SDS011;43423;46.510;6.686;2023-03-19T08:12:05;11.35;;;5.00;;
57593;SDS011;43423;46.510;6.686;2023-03-19T08:14:31;8.73;;;4.22;;
57593;SDS011;43423;46.510;6.686;2023-03-19T08:17:00;9.13;;;4.55;;
57593;SDS011;43423;46.510;6.686;2023-03-19T08:19:25;9.80;;;4.88;;
57593;SDS011;43423;46.510;6.686;2023-03-19T08:21:51;12.48;;;5.50;;
57593;SDS011;43423;46.510;6.686;2023-03-19T08:24:17;8.05;;;4.35;;
57593;SDS011;43423;46.510;6.686;2023-03-19T08:26:42;9.93;;;4.00;;
57593;SDS011;43423;46.510;6.686;2023-03-19T08:29:08;9.88;;;5.10;;
57593;SDS011;43423;46.510;6.686;2023-03-19T08:31:34;6.97;;;4.35;;
57593;SDS011;43423;46.510;6.686;2023-03-19T08:33:59;7.97;;;3.97;;
57593;SDS011;43423;46.510;6.686;2023-03-19T08:36:27;7.60;;;4.47;;
57593;SDS011;43423;46.510;6.686;2023-03-19T08:38:52;10.07;;;5.47;;
57593;SDS011;43423;46.510;6.686;2023-03-19T08:41:21;11.40;;;5.15;;
57593;SDS011;43423;46.510;6.686;2023-03-19T08:43:48;12.35;;;4.97;;
57593;SDS011;43423;46.510;6.686;2023-03-19T08:46:14;14.68;;;4.82;;
57593;SDS011;43423;46.510;6.686;2023-03-19T08:48:40;6.65;;;4.10;;
57593;SDS011;43423;46.510;6.686;2023-03-19T08:51:06;8.43;;;4.45;;
57593;SDS011;43423;46.510;6.686;2023-03-19T08:53:32;7.10;;;4.30;;
57593;SDS011;43423;46.510;6.686;2023-03-19T08:55:59;7.05;;;4.05;;
57593;SDS011;43423;46.510;6.686;2023-03-19T08:58:26;13.32;;;4.47;;
57593;SDS011;43423;46.510;6.686;2023-03-19T09:00:52;9.70;;;4.45;;
57593;SDS011;43423;46.510;6.686;2023-03-19T09:03:19;7.05;;;4.10;;
57593;SDS011;43423;46.510;6.686;2023-03-19T09:05:46;8.02;;;3.97;;
57593;SDS011;43423;46.510;6.686;2023-03-19T09:08:12;10.55;;;3.85;;
57593;SDS011;43423;46.510;6.686;2023-03-19T09:10:37;12.90;;;5.40;;
57593;SDS011;43423;46.510;6.686;2023-03-19T09:13:03;10.88;;;4.70;;
57593;SDS011;43423;46.510;6.686;2023-03-19T09:15:29;8.85;;;5.28;;
57593;SDS011;43423;46.510;6.686;2023-03-19T09:17:55;8.23;;;4.53;;
57593;SDS011;43423;46.510;6.686;2023-03-19T09:20:21;7.72;;;4.63;;
57593;SDS011;43423;46.510;6.686;2023-03-19T09:22:47;8.82;;;5.05;;
57593;SDS011;43423;46.510;6.686;2023-03-19T09:25:12;7.03;;;4.20;;
57593;SDS011;43423;46.510;6.686;2023-03-19T09:27:38;9.45;;;5.25;;
57593;SDS011;43423;46.510;6.686;2023-03-19T09:30:03;11.50;;;4.90;;
57593;SDS011;43423;46.510;6.686;2023-03-19T09:32:30;7.43;;;4.82;;
57593;SDS011;43423;46.510;6.686;2023-03-19T09:34:55;9.60;;;5.05;;
57593;SDS011;43423;46.510;6.686;2023-03-19T09:37:21;9.20;;;5.50;;
57593;SDS011;43423;46.510;6.686;2023-03-19T09:39:47;10.65;;;5.82;;
57593;SDS011;43423;46.510;6.686;2023-03-19T09:45:13;9.15;;;5.90;;
57593;SDS011;43423;46.510;6.686;2023-03-19T09:47:41;8.48;;;5.35;;
57593;SDS011;43423;46.510;6.686;2023-03-19T09:50:21;10.63;;;5.50;;
57593;SDS011;43423;46.510;6.686;2023-03-19T09:52:57;16.35;;;6.20;;
57593;SDS011;43423;46.510;6.686;2023-03-19T09:58:12;9.70;;;5.45;;
57593;SDS011;43423;46.510;6.686;2023-03-19T10:00:40;9.65;;;5.75;;
57593;SDS011;43423;46.510;6.686;2023-03-19T10:03:14;15.00;;;6.40;;
57593;SDS011;43423;46.510;6.686;2023-03-19T10:05:56;13.35;;;5.40;;
57593;SDS011;43423;46.510;6.686;2023-03-19T10:12:02;12.30;;;6.20;;
57593;SDS011;43423;46.510;6.686;2023-03-19T10:17:05;15.00;;;8.25;;
57593;SDS011;43423;46.510;6.686;2023-03-19T10:19:41;10.13;;;6.20;;
57593;SDS011;43423;46.510;6.686;2023-03-19T10:22:15;16.30;;;7.07;;
57593;SDS011;43423;46.510;6.686;2023-03-19T10:24:47;13.65;;;6.75;;
57593;SDS011;43423;46.510;6.686;2023-03-19T10:27:17;13.93;;;7.30;;
57593;SDS011;43423;46.510;6.686;2023-03-19T10:29:45;15.07;;;7.82;;
57593;SDS011;43423;46.510;6.686;2023-03-19T10:32:57;15.18;;;7.28;;
57593;SDS011;43423;46.510;6.686;2023-03-19T10:35:06;16.17;;;6.63;;
57593;SDS011;43423;46.510;6.686;2023-03-19T10:37:40;10.95;;;6.65;;
57593;SDS011;43423;46.510;6.686;2023-03-19T10:40:12;17.35;;;6.82;;
57593;SDS011;43423;46.510;6.686;2023-03-19T10:42:52;14.48;;;6.70;;
57593;SDS011;43423;46.510;6.686;2023-03-19T10:45:37;12.93;;;6.38;;
57593;SDS011;43423;46.510;6.686;2023-03-19T10:48:03;11.48;;;7.05;;
57593;SDS011;43423;46.510;6.686;2023-03-19T10:56:00;14.30;;;6.75;;
57593;SDS011;43423;46.510;6.686;2023-03-19T10:58:30;12.80;;;7.18;;
57593;SDS011;43423;46.510;6.686;2023-03-19T11:01:05;17.05;;;6.65;;
57593;SDS011;43423;46.510;6.686;2023-03-19T11:09:29;9.55;;;6.35;;
57593;SDS011;43423;46.510;6.686;2023-03-19T11:14:53;13.55;;;7.03;;
57593;SDS011;43423;46.510;6.686;2023-03-19T11:17:23;12.23;;;6.40;;
57593;SDS011;43423;46.510;6.686;2023-03-19T11:19:55;13.00;;;6.68;;
57593;SDS011;43423;46.510;6.686;2023-03-19T11:22:29;11.30;;;6.32;;
57593;SDS011;43423;46.510;6.686;2023-03-19T11:25:14;10.65;;;6.20;;
57593;SDS011;43423;46.510;6.686;2023-03-19T11:30:25;12.32;;;6.72;;
57593;SDS011;43423;46.510;6.686;2023-03-19T11:33:27;12.68;;;6.50;;
57593;SDS011;43423;46.510;6.686;2023-03-19T11:36:07;15.40;;;6.70;;
57593;SDS011;43423;46.510;6.686;2023-03-19T11:39:05;13.35;;;6.53;;
57593;SDS011;43423;46.510;6.686;2023-03-19T11:42:04;16.10;;;7.13;;
57593;SDS011;43423;46.510;6.686;2023-03-19T11:50:13;18.65;;;7.10;;
57593;SDS011;43423;46.510;6.686;2023-03-19T11:55:42;13.82;;;7.75;;
57593;SDS011;43423;46.510;6.686;2023-03-19T11:58:37;17.15;;;7.68;;
57593;SDS011;43423;46.510;6.686;2023-03-19T12:07:20;14.15;;;7.40;;
57593;SDS011;43423;46.510;6.686;2023-03-19T12:16:16;12.23;;;6.38;;
57593;SDS011;43423;46.510;6.686;2023-03-19T12:24:01;15.52;;;6.43;;
57593;SDS011;43423;46.510;6.686;2023-03-19T12:26:32;14.13;;;6.55;;
57593;SDS011;43423;46.510;6.686;2023-03-19T12:40:03;12.88;;;6.53;;
57593;SDS011;43423;46.510;6.686;2023-03-19T12:42:37;14.18;;;6.32;;
57593;SDS011;43423;46.510;6.686;2023-03-19T12:45:07;17.02;;;5.93;;
57593;SDS011;43423;46.510;6.686;2023-03-19T12:47:43;14.00;;;6.32;;
57593;SDS011;43423;46.510;6.686;2023-03-19T12:50:12;9.20;;;5.95;;
57593;SDS011;43423;46.510;6.686;2023-03-19T12:52:48;16.40;;;6.15;;
57593;SDS011;43423;46.510;6.686;2023-03-19T12:55:19;10.27;;;5.15;;
57593;SDS011;43423;46.510;6.686;2023-03-19T13:02:58;9.68;;;5.07;;
57593;SDS011;43423;46.510;6.686;2023-03-19T13:08:31;8.85;;;5.13;;
57593;SDS011;43423;46.510;6.686;2023-03-19T13:10:58;8.98;;;5.72;;
57593;SDS011;43423;46.510;6.686;2023-03-19T13:13:39;9.05;;;4.88;;
57593;SDS011;43423;46.510;6.686;2023-03-19T13:21:38;14.20;;;6.20;;
57593;SDS011;43423;46.510;6.686;2023-03-19T13:26:52;10.35;;;6.15;;
57593;SDS011;43423;46.510;6.686;2023-03-19T13:29:30;14.32;;;6.10;;
57593;SDS011;43423;46.510;6.686;2023-03-19T13:32:04;14.00;;;6.20;;
57593;SDS011;43423;46.510;6.686;2023-03-19T13:34:33;13.50;;;6.03;;
57593;SDS011;43423;46.510;6.686;2023-03-19T13:39:35;13.43;;;6.80;;
57593;SDS011;43423;46.510;6.686;2023-03-19T13:46:56;10.73;;;6.72;;
57593;SDS011;43423;46.510;6.686;2023-03-19T13:49:25;11.90;;;6.55;;
57593;SDS011;43423;46.510;6.686;2023-03-19T13:54:36;14.95;;;6.82;;
57593;SDS011;43423;46.510;6.686;2023-03-19T13:59:38;13.27;;;7.22;;
57593;SDS011;43423;46.510;6.686;2023-03-19T14:04:52;15.90;;;8.38;;
57593;SDS011;43423;46.510;6.686;2023-03-19T14:07:24;18.65;;;8.48;;
57593;SDS011;43423;46.510;6.686;2023-03-19T14:15:03;12.13;;;7.05;;
57593;SDS011;43423;46.510;6.686;2023-03-19T14:29:05;9.45;;;4.28;;
57593;SDS011;43423;46.510;6.686;2023-03-19T14:31:32;8.02;;;4.68;;
57593;SDS011;43423;46.510;6.686;2023-03-19T14:43:01;6.90;;;3.75;;
57593;SDS011;43423;46.510;6.686;2023-03-19T14:45:45;14.95;;;7.50;;
57593;SDS011;43423;46.510;6.686;2023-03-19T14:56:10;16.17;;;7.85;;
57593;SDS011;43423;46.510;6.686;2023-03-19T14:58:46;15.65;;;8.57;;
57593;SDS011;43423;46.510;6.686;2023-03-19T15:01:12;13.15;;;6.55;;
57593;SDS011;43423;46.510;6.686;2023-03-19T15:03:38;15.38;;;8.73;;
57593;SDS011;43423;46.510;6.686;2023-03-19T15:06:04;13.32;;;8.18;;
57593;SDS011;43423;46.510;6.686;2023-03-19T15:08:32;14.35;;;8.55;;
57593;SDS011;43423;46.510;6.686;2023-03-19T15:16:21;19.20;;;8.93;;
57593;SDS011;43423;46.510;6.686;2023-03-19T15:18:55;19.73;;;8.73;;
57593;SDS011;43423;46.510;6.686;2023-03-19T15:21:21;23.55;;;9.52;;
57593;SDS011;43423;46.510;6.686;2023-03-19T15:23:47;17.63;;;8.32;;
57593;SDS011;43423;46.510;6.686;2023-03-19T15:26:13;14.30;;;8.07;;
57593;SDS011;43423;46.510;6.686;2023-03-19T15:28:43;12.68;;;7.80;;
57593;SDS011;43423;46.510;6.686;2023-03-19T15:31:13;18.38;;;9.23;;
57593;SDS011;43423;46.510;6.686;2023-03-19T15:33:39;19.73;;;8.38;;
57593;SDS011;43423;46.510;6.686;2023-03-19T15:36:07;19.52;;;9.20;;
57593;SDS011;43423;46.510;6.686;2023-03-19T15:38:38;16.05;;;8.27;;
57593;SDS011;43423;46.510;6.686;2023-03-19T15:41:15;20.88;;;8.57;;
57593;SDS011;43423;46.510;6.686;2023-03-19T15:43:41;16.52;;;7.25;;
57593;SDS011;43423;46.510;6.686;2023-03-19T15:46:13;13.18;;;7.07;;
57593;SDS011;43423;46.510;6.686;2023-03-19T15:48:43;13.50;;;7.10;;
57593;SDS011;43423;46.510;6.686;2023-03-19T15:51:15;14.48;;;7.80;;
57593;SDS011;43423;46.510;6.686;2023-03-19T15:53:41;13.90;;;7.68;;
57593;SDS011;43423;46.510;6.686;2023-03-19T15:56:08;12.57;;;7.47;;
57593;SDS011;43423;46.510;6.686;2023-03-19T15:58:46;12.25;;;7.20;;
57593;SDS011;43423;46.510;6.686;2023-03-19T16:01:15;13.80;;;7.32;;
57593;SDS011;43423;46.510;6.686;2023-03-19T16:03:43;18.33;;;8.77;;
57593;SDS011;43423;46.510;6.686;2023-03-19T16:06:20;14.45;;;6.85;;
57593;SDS011;43423;46.510;6.686;2023-03-19T16:08:52;13.82;;;7.78;;
57593;SDS011;43423;46.510;6.686;2023-03-19T16:11:29;18.55;;;8.48;;
57593;SDS011;43423;46.510;6.686;2023-03-19T16:16:43;18.00;;;8.25;;
57593;SDS011;43423;46.510;6.686;2023-03-19T16:19:27;16.77;;;6.60;;
57593;SDS011;43423;46.510;6.686;2023-03-19T16:21:55;16.35;;;7.53;;
57593;SDS011;43423;46.510;6.686;2023-03-19T16:24:29;14.82;;;7.82;;
57593;SDS011;43423;46.510;6.686;2023-03-19T16:27:00;15.90;;;9.20;;
57593;SDS011;43423;46.510;6.686;2023-03-19T16:29:30;15.50;;;8.43;;
57593;SDS011;43423;46.510;6.686;2023-03-19T16:32:03;16.15;;;9.23;;
57593;SDS011;43423;46.510;6.686;2023-03-19T16:42:38;14.55;;;7.63;;
57593;SDS011;43423;46.510;6.686;2023-03-19T16:47:43;15.77;;;7.38;;
57593;SDS011;43423;46.510;6.686;2023-03-19T16:50:10;15.88;;;7.22;;
57593;SDS011;43423;46.510;6.686;2023-03-19T16:52:37;9.52;;;5.72;;
57593;SDS011;43423;46.510;6.686;2023-03-19T16:55:03;14.27;;;5.70;;
57593;SDS011;43423;46.510;6.686;2023-03-19T16:57:36;15.02;;;5.93;;
57593;SDS011;43423;46.510;6.686;2023-03-19T17:00:02;8.68;;;5.72;;
57593;SDS011;43423;46.510;6.686;2023-03-19T17:02:28;12.15;;;5.85;;
57593;SDS011;43423;46.510;6.686;2023-03-19T17:04:54;15.55;;;6.60;;
57593;SDS011;43423;46.510;6.686;2023-03-19T17:07:20;9.13;;;6.25;;
57593;SDS011;43423;46.510;6.686;2023-03-19T17:09:45;11.98;;;6.40;;
57593;SDS011;43423;46.510;6.686;2023-03-19T17:12:13;10.98;;;6.60;;
57593;SDS011;43423;46.510;6.686;2023-03-19T17:14:40;12.13;;;5.85;;
57593;SDS011;43423;46.510;6.686;2023-03-19T17:17:16;9.40;;;5.28;;